sensor_id;sensor_type;location;lat;lon;timestamp;P1;durP1;ratioP1;P2;durP2;ratioP2
26598;SDS011;14240;51.064;16.612;2023-05-29T00:01:47;13.48;;;5.78;;
26598;SDS011;14240;51.064;16.612;2023-05-29T00:04:13;33.50;;;11.23;;
26598;SDS011;14240;51.064;16.612;2023-05-29T00:06:39;123.55;;;35.38;;
26598;SDS011;14240;51.064;16.612;2023-05-29T00:09:05;23.98;;;7.60;;
26598;SDS011;14240;51.064;16.612;2023-05-29T00:11:31;11.30;;;5.65;;
26598;SDS011;14240;51.064;16.612;2023-05-29T00:13:57;11.48;;;5.22;;
26598;SDS011;14240;51.064;16.612;2023-05-29T00:16:23;9.13;;;4.20;;
26598;SDS011;14240;51.064;16.612;2023-05-29T00:18:49;7.15;;;4.22;;
26598;SDS011;14240;51.064;16.612;2023-05-29T00:23:42;6.28;;;3.97;;
26598;SDS011;14240;51.064;16.612;2023-05-29T00:26:08;9.85;;;4.43;;
26598;SDS011;14240;51.064;16.612;2023-05-29T00:28:34;12.02;;;4.32;;
26598;SDS011;14240;51.064;16.612;2023-05-29T00:31:01;10.02;;;4.63;;
26598;SDS011;14240;51.064;16.612;2023-05-29T00:33:27;9.85;;;4.10;;
26598;SDS011;14240;51.064;16.612;2023-05-29T00:35:53;6.32;;;4.25;;
26598;SDS011;14240;51.064;16.612;2023-05-29T00:38:18;8.77;;;4.18;;
26598;SDS011;14240;51.064;16.612;2023-05-29T00:40:44;10.80;;;4.38;;
26598;SDS011;14240;51.064;16.612;2023-05-29T00:43:10;9.32;;;4.47;;
26598;SDS011;14240;51.064;16.612;2023-05-29T00:45:36;9.25;;;4.15;;
26598;SDS011;14240;51.064;16.612;2023-05-29T00:48:08;12.10;;;4.88;;
26598;SDS011;14240;51.064;16.612;2023-05-29T00:50:33;13.98;;;5.03;;
26598;SDS011;14240;51.064;16.612;2023-05-29T00:53:00;157.48;;;57.30;;
26598;SDS011;14240;51.064;16.612;2023-05-29T00:55:27;438.20;;;173.07;;
26598;SDS011;14240;51.064;16.612;2023-05-29T00:57:54;431.77;;;173.07;;
26598;SDS011;14240;51.064;16.612;2023-05-29T01:00:20;332.92;;;101.38;;
26598;SDS011;14240;51.064;16.612;2023-05-29T01:02:52;86.85;;;28.05;;
26598;SDS011;14240;51.064;16.612;2023-05-29T01:05:20;28.70;;;11.20;;
26598;SDS011;14240;51.064;16.612;2023-05-29T01:07:56;56.65;;;20.65;;
26598;SDS011;14240;51.064;16.612;2023-05-29T01:10:23;71.22;;;22.27;;
26598;SDS011;14240;51.064;16.612;2023-05-29T01:13:02;65.70;;;23.42;;
26598;SDS011;14240;51.064;16.612;2023-05-29T01:18:30;27.58;;;11.02;;
26598;SDS011;14240;51.064;16.612;2023-05-29T01:21:06;16.23;;;7.00;;
26598;SDS011;14240;51.064;16.612;2023-05-29T01:28:57;11.40;;;6.00;;
26598;SDS011;14240;51.064;16.612;2023-05-29T01:31:26;13.35;;;5.95;;
26598;SDS011;14240;51.064;16.612;2023-05-29T01:33:57;39.20;;;16.38;;
26598;SDS011;14240;51.064;16.612;2023-05-29T01:36:25;81.13;;;34.08;;
26598;SDS011;14240;51.064;16.612;2023-05-29T01:38:53;67.75;;;27.92;;
26598;SDS011;14240;51.064;16.612;2023-05-29T01:41:27;52.05;;;17.00;;
26598;SDS011;14240;51.064;16.612;2023-05-29T01:43:55;72.27;;;23.23;;
26598;SDS011;14240;51.064;16.612;2023-05-29T01:46:22;91.10;;;29.63;;
26598;SDS011;14240;51.064;16.612;2023-05-29T01:48:50;117.05;;;36.42;;
26598;SDS011;14240;51.064;16.612;2023-05-29T01:51:17;80.25;;;27.85;;
26598;SDS011;14240;51.064;16.612;2023-05-29T01:53:51;58.03;;;22.33;;
26598;SDS011;14240;51.064;16.612;2023-05-29T01:56:17;39.25;;;16.25;;
26598;SDS011;14240;51.064;16.612;2023-05-29T01:58:47;25.98;;;9.40;;
26598;SDS011;14240;51.064;16.612;2023-05-29T02:01:23;12.43;;;6.25;;
26598;SDS011;14240;51.064;16.612;2023-05-29T02:03:49;11.77;;;5.57;;
26598;SDS011;14240;51.064;16.612;2023-05-29T02:06:16;10.15;;;5.57;;
26598;SDS011;14240;51.064;16.612;2023-05-29T02:08:45;10.18;;;5.82;;
26598;SDS011;14240;51.064;16.612;2023-05-29T02:11:12;12.57;;;5.85;;
26598;SDS011;14240;51.064;16.612;2023-05-29T02:13:49;63.15;;;23.83;;
26598;SDS011;14240;51.064;16.612;2023-05-29T02:16:16;83.75;;;29.35;;
26598;SDS011;14240;51.064;16.612;2023-05-29T02:18:42;64.50;;;24.60;;
26598;SDS011;14240;51.064;16.612;2023-05-29T02:21:08;49.22;;;19.10;;
26598;SDS011;14240;51.064;16.612;2023-05-29T02:23:34;41.10;;;17.08;;
26598;SDS011;14240;51.064;16.612;2023-05-29T02:25:59;27.40;;;11.57;;
26598;SDS011;14240;51.064;16.612;2023-05-29T02:28:25;29.63;;;12.68;;
26598;SDS011;14240;51.064;16.612;2023-05-29T02:30:52;17.40;;;8.63;;
26598;SDS011;14240;51.064;16.612;2023-05-29T02:33:27;18.50;;;7.00;;
26598;SDS011;14240;51.064;16.612;2023-05-29T02:35:57;12.60;;;6.65;;
26598;SDS011;14240;51.064;16.612;2023-05-29T02:38:22;20.20;;;11.80;;
26598;SDS011;14240;51.064;16.612;2023-05-29T02:40:50;19.77;;;10.85;;
26598;SDS011;14240;51.064;16.612;2023-05-29T02:43:15;18.90;;;9.20;;
26598;SDS011;14240;51.064;16.612;2023-05-29T02:45:41;17.65;;;7.45;;
26598;SDS011;14240;51.064;16.612;2023-05-29T02:48:07;12.95;;;6.90;;
26598;SDS011;14240;51.064;16.612;2023-05-29T02:50:32;13.02;;;5.43;;
26598;SDS011;14240;51.064;16.612;2023-05-29T02:52:58;10.40;;;5.60;;
26598;SDS011;14240;51.064;16.612;2023-05-29T02:55:24;15.32;;;5.50;;
26598;SDS011;14240;51.064;16.612;2023-05-29T02:57:50;13.60;;;5.55;;
26598;SDS011;14240;51.064;16.612;2023-05-29T03:00:18;9.20;;;4.97;;
26598;SDS011;14240;51.064;16.612;2023-05-29T03:02:46;12.55;;;5.22;;
26598;SDS011;14240;51.064;16.612;2023-05-29T03:05:12;12.73;;;5.07;;
26598;SDS011;14240;51.064;16.612;2023-05-29T03:07:37;11.05;;;5.30;;
26598;SDS011;14240;51.064;16.612;2023-05-29T03:10:03;11.07;;;5.00;;
26598;SDS011;14240;51.064;16.612;2023-05-29T03:12:30;8.02;;;4.85;;
26598;SDS011;14240;51.064;16.612;2023-05-29T03:15:07;10.52;;;4.75;;
26598;SDS011;14240;51.064;16.612;2023-05-29T03:17:33;9.75;;;4.95;;
26598;SDS011;14240;51.064;16.612;2023-05-29T03:20:09;14.20;;;5.23;;
26598;SDS011;14240;51.064;16.612;2023-05-29T03:22:35;11.15;;;4.85;;
26598;SDS011;14240;51.064;16.612;2023-05-29T03:25:02;9.50;;;4.80;;
26598;SDS011;14240;51.064;16.612;2023-05-29T03:27:29;9.80;;;5.22;;
26598;SDS011;14240;51.064;16.612;2023-05-29T03:29:55;9.43;;;5.07;;
26598;SDS011;14240;51.064;16.612;2023-05-29T03:32:22;14.60;;;4.88;;
26598;SDS011;14240;51.064;16.612;2023-05-29T03:34:48;11.43;;;4.93;;
26598;SDS011;14240;51.064;16.612;2023-05-29T03:37:14;8.68;;;4.60;;
26598;SDS011;14240;51.064;16.612;2023-05-29T03:39:51;12.40;;;5.50;;
26598;SDS011;14240;51.064;16.612;2023-05-29T03:42:25;15.25;;;5.70;;
26598;SDS011;14240;51.064;16.612;2023-05-29T03:44:57;11.02;;;4.82;;
26598;SDS011;14240;51.064;16.612;2023-05-29T03:47:24;10.55;;;5.10;;
26598;SDS011;14240;51.064;16.612;2023-05-29T03:50:04;20.48;;;5.57;;
26598;SDS011;14240;51.064;16.612;2023-05-29T03:52:34;11.68;;;5.47;;
26598;SDS011;14240;51.064;16.612;2023-05-29T03:55:00;8.90;;;4.88;;
26598;SDS011;14240;51.064;16.612;2023-05-29T03:57:27;10.40;;;5.28;;
26598;SDS011;14240;51.064;16.612;2023-05-29T03:59:52;9.93;;;5.80;;
26598;SDS011;14240;51.064;16.612;2023-05-29T04:02:18;11.05;;;5.63;;
26598;SDS011;14240;51.064;16.612;2023-05-29T04:04:46;9.98;;;4.75;;
26598;SDS011;14240;51.064;16.612;2023-05-29T04:07:13;11.20;;;5.45;;
26598;SDS011;14240;51.064;16.612;2023-05-29T04:09:42;7.88;;;4.78;;
26598;SDS011;14240;51.064;16.612;2023-05-29T04:12:08;9.50;;;4.75;;
26598;SDS011;14240;51.064;16.612;2023-05-29T04:14:34;10.25;;;5.03;;
26598;SDS011;14240;51.064;16.612;2023-05-29T04:16:59;11.15;;;5.30;;
26598;SDS011;14240;51.064;16.612;2023-05-29T04:19:25;10.30;;;5.28;;
26598;SDS011;14240;51.064;16.612;2023-05-29T04:21:51;9.50;;;5.22;;
26598;SDS011;14240;51.064;16.612;2023-05-29T04:24:16;8.25;;;4.95;;
26598;SDS011;14240;51.064;16.612;2023-05-29T04:26:43;9.30;;;5.63;;
26598;SDS011;14240;51.064;16.612;2023-05-29T04:29:09;13.10;;;4.63;;
26598;SDS011;14240;51.064;16.612;2023-05-29T04:31:37;9.93;;;4.45;;
26598;SDS011;14240;51.064;16.612;2023-05-29T04:34:03;13.38;;;5.22;;
26598;SDS011;14240;51.064;16.612;2023-05-29T04:36:32;9.75;;;4.60;;
26598;SDS011;14240;51.064;16.612;2023-05-29T04:38:59;9.88;;;5.80;;
26598;SDS011;14240;51.064;16.612;2023-05-29T04:41:30;10.43;;;4.97;;
26598;SDS011;14240;51.064;16.612;2023-05-29T04:43:56;11.10;;;4.80;;
26598;SDS011;14240;51.064;16.612;2023-05-29T04:46:22;8.75;;;4.30;;
26598;SDS011;14240;51.064;16.612;2023-05-29T04:48:50;10.75;;;4.97;;
26598;SDS011;14240;51.064;16.612;2023-05-29T04:51:19;13.88;;;5.53;;
26598;SDS011;14240;51.064;16.612;2023-05-29T04:53:46;8.88;;;4.93;;
26598;SDS011;14240;51.064;16.612;2023-05-29T04:56:13;10.70;;;5.20;;
26598;SDS011;14240;51.064;16.612;2023-05-29T04:58:40;10.75;;;4.82;;
26598;SDS011;14240;51.064;16.612;2023-05-29T05:01:06;9.13;;;5.22;;
26598;SDS011;14240;51.064;16.612;2023-05-29T05:03:33;12.30;;;5.10;;
26598;SDS011;14240;51.064;16.612;2023-05-29T05:06:00;10.27;;;5.20;;
26598;SDS011;14240;51.064;16.612;2023-05-29T05:08:31;11.02;;;5.03;;
26598;SDS011;14240;51.064;16.612;2023-05-29T05:10:59;11.02;;;5.25;;
26598;SDS011;14240;51.064;16.612;2023-05-29T05:13:26;16.47;;;5.53;;
26598;SDS011;14240;51.064;16.612;2023-05-29T05:15:52;13.43;;;4.82;;
26598;SDS011;14240;51.064;16.612;2023-05-29T05:18:20;9.10;;;4.88;;
26598;SDS011;14240;51.064;16.612;2023-05-29T05:20:49;8.45;;;5.03;;
26598;SDS011;14240;51.064;16.612;2023-05-29T05:23:22;11.10;;;5.20;;
26598;SDS011;14240;51.064;16.612;2023-05-29T05:25:48;10.85;;;5.18;;
26598;SDS011;14240;51.064;16.612;2023-05-29T05:28:18;8.10;;;5.53;;
26598;SDS011;14240;51.064;16.612;2023-05-29T05:30:45;10.57;;;5.45;;
26598;SDS011;14240;51.064;16.612;2023-05-29T05:33:23;11.32;;;5.47;;
26598;SDS011;14240;51.064;16.612;2023-05-29T05:35:49;20.45;;;5.70;;
26598;SDS011;14240;51.064;16.612;2023-05-29T05:38:16;11.75;;;7.20;;
26598;SDS011;14240;51.064;16.612;2023-05-29T05:40:41;10.40;;;6.63;;
26598;SDS011;14240;51.064;16.612;2023-05-29T05:43:09;13.63;;;6.43;;
26598;SDS011;14240;51.064;16.612;2023-05-29T05:45:35;10.95;;;5.93;;
26598;SDS011;14240;51.064;16.612;2023-05-29T05:48:02;9.97;;;5.00;;
26598;SDS011;14240;51.064;16.612;2023-05-29T05:50:28;26.05;;;14.60;;
26598;SDS011;14240;51.064;16.612;2023-05-29T05:52:54;12.98;;;5.85;;
26598;SDS011;14240;51.064;16.612;2023-05-29T05:55:20;11.27;;;5.63;;
26598;SDS011;14240;51.064;16.612;2023-05-29T05:57:45;12.15;;;5.63;;
26598;SDS011;14240;51.064;16.612;2023-05-29T06:00:12;12.57;;;5.75;;
26598;SDS011;14240;51.064;16.612;2023-05-29T06:02:48;8.40;;;5.77;;
26598;SDS011;14240;51.064;16.612;2023-05-29T06:05:14;11.95;;;4.97;;
26598;SDS011;14240;51.064;16.612;2023-05-29T06:07:40;9.70;;;5.45;;
26598;SDS011;14240;51.064;16.612;2023-05-29T06:10:06;10.05;;;5.28;;
26598;SDS011;14240;51.064;16.612;2023-05-29T06:12:32;12.77;;;5.38;;
26598;SDS011;14240;51.064;16.612;2023-05-29T06:15:00;14.32;;;6.78;;
26598;SDS011;14240;51.064;16.612;2023-05-29T06:17:26;13.57;;;6.18;;
26598;SDS011;14240;51.064;16.612;2023-05-29T06:19:57;8.38;;;5.22;;
26598;SDS011;14240;51.064;16.612;2023-05-29T06:22:26;10.75;;;5.65;;
26598;SDS011;14240;51.064;16.612;2023-05-29T06:25:09;11.60;;;5.25;;
26598;SDS011;14240;51.064;16.612;2023-05-29T06:27:47;9.00;;;5.40;;
26598;SDS011;14240;51.064;16.612;2023-05-29T06:30:30;11.18;;;5.57;;
26598;SDS011;14240;51.064;16.612;2023-05-29T06:33:18;8.85;;;5.10;;
26598;SDS011;14240;51.064;16.612;2023-05-29T06:35:45;6.45;;;4.45;;
26598;SDS011;14240;51.064;16.612;2023-05-29T06:38:11;10.23;;;4.75;;
26598;SDS011;14240;51.064;16.612;2023-05-29T06:40:45;12.07;;;5.63;;
26598;SDS011;14240;51.064;16.612;2023-05-29T06:43:11;11.23;;;5.45;;
26598;SDS011;14240;51.064;16.612;2023-05-29T06:45:37;10.68;;;5.50;;
26598;SDS011;14240;51.064;16.612;2023-05-29T06:48:03;16.27;;;6.32;;
26598;SDS011;14240;51.064;16.612;2023-05-29T06:50:35;8.77;;;5.35;;
26598;SDS011;14240;51.064;16.612;2023-05-29T06:53:01;10.45;;;5.18;;
26598;SDS011;14240;51.064;16.612;2023-05-29T06:55:26;7.43;;;4.75;;
26598;SDS011;14240;51.064;16.612;2023-05-29T06:57:54;11.73;;;5.32;;
26598;SDS011;14240;51.064;16.612;2023-05-29T07:00:24;9.50;;;5.22;;
26598;SDS011;14240;51.064;16.612;2023-05-29T07:02:54;13.60;;;5.30;;
26598;SDS011;14240;51.064;16.612;2023-05-29T07:05:31;11.05;;;5.18;;
26598;SDS011;14240;51.064;16.612;2023-05-29T07:08:11;11.65;;;6.00;;
26598;SDS011;14240;51.064;16.612;2023-05-29T07:10:37;7.22;;;5.78;;
26598;SDS011;14240;51.064;16.612;2023-05-29T07:13:03;11.55;;;5.78;;
26598;SDS011;14240;51.064;16.612;2023-05-29T07:15:29;11.30;;;5.40;;
26598;SDS011;14240;51.064;16.612;2023-05-29T07:17:56;11.68;;;5.07;;
26598;SDS011;14240;51.064;16.612;2023-05-29T07:20:39;9.43;;;4.47;;
26598;SDS011;14240;51.064;16.612;2023-05-29T07:23:04;9.38;;;5.47;;
26598;SDS011;14240;51.064;16.612;2023-05-29T07:25:30;12.50;;;5.82;;
26598;SDS011;14240;51.064;16.612;2023-05-29T07:27:56;17.13;;;8.52;;
26598;SDS011;14240;51.064;16.612;2023-05-29T07:30:25;8.50;;;4.90;;
26598;SDS011;14240;51.064;16.612;2023-05-29T07:32:51;9.32;;;4.88;;
26598;SDS011;14240;51.064;16.612;2023-05-29T07:35:25;8.27;;;4.70;;
26598;SDS011;14240;51.064;16.612;2023-05-29T07:37:50;9.27;;;4.63;;
26598;SDS011;14240;51.064;16.612;2023-05-29T07:40:17;6.90;;;4.10;;
26598;SDS011;14240;51.064;16.612;2023-05-29T07:42:43;8.23;;;4.70;;
26598;SDS011;14240;51.064;16.612;2023-05-29T07:45:08;8.10;;;4.40;;
26598;SDS011;14240;51.064;16.612;2023-05-29T07:47:34;10.30;;;4.50;;
26598;SDS011;14240;51.064;16.612;2023-05-29T07:50:00;12.70;;;5.47;;
26598;SDS011;14240;51.064;16.612;2023-05-29T07:52:25;7.22;;;3.67;;
26598;SDS011;14240;51.064;16.612;2023-05-29T07:54:52;7.70;;;4.07;;
26598;SDS011;14240;51.064;16.612;2023-05-29T07:57:18;6.25;;;3.85;;
26598;SDS011;14240;51.064;16.612;2023-05-29T07:59:43;6.72;;;3.72;;
26598;SDS011;14240;51.064;16.612;2023-05-29T08:02:09;6.38;;;3.72;;
26598;SDS011;14240;51.064;16.612;2023-05-29T08:04:35;6.97;;;3.75;;
26598;SDS011;14240;51.064;16.612;2023-05-29T08:07:01;8.30;;;3.60;;
26598;SDS011;14240;51.064;16.612;2023-05-29T08:09:28;9.07;;;4.00;;
26598;SDS011;14240;51.064;16.612;2023-05-29T08:11:54;6.93;;;3.83;;
26598;SDS011;14240;51.064;16.612;2023-05-29T08:14:20;8.85;;;4.00;;
26598;SDS011;14240;51.064;16.612;2023-05-29T08:16:46;8.68;;;3.78;;
26598;SDS011;14240;51.064;16.612;2023-05-29T08:19:11;5.88;;;3.30;;
26598;SDS011;14240;51.064;16.612;2023-05-29T08:21:37;4.38;;;2.55;;
26598;SDS011;14240;51.064;16.612;2023-05-29T08:24:03;4.05;;;2.53;;
26598;SDS011;14240;51.064;16.612;2023-05-29T08:26:32;4.88;;;2.63;;
26598;SDS011;14240;51.064;16.612;2023-05-29T08:28:57;9.05;;;2.92;;
26598;SDS011;14240;51.064;16.612;2023-05-29T08:31:23;7.68;;;2.88;;
26598;SDS011;14240;51.064;16.612;2023-05-29T08:33:50;7.05;;;2.90;;
26598;SDS011;14240;51.064;16.612;2023-05-29T08:36:16;4.13;;;2.40;;
26598;SDS011;14240;51.064;16.612;2023-05-29T08:38:42;10.63;;;3.92;;
26598;SDS011;14240;51.064;16.612;2023-05-29T08:41:08;6.22;;;2.65;;
26598;SDS011;14240;51.064;16.612;2023-05-29T08:43:40;7.85;;;2.95;;
26598;SDS011;14240;51.064;16.612;2023-05-29T08:46:07;6.40;;;2.90;;
26598;SDS011;14240;51.064;16.612;2023-05-29T08:48:32;3.80;;;2.67;;
26598;SDS011;14240;51.064;16.612;2023-05-29T08:51:03;4.00;;;2.30;;
26598;SDS011;14240;51.064;16.612;2023-05-29T08:53:32;5.43;;;2.78;;
26598;SDS011;14240;51.064;16.612;2023-05-29T08:55:58;4.72;;;2.50;;
26598;SDS011;14240;51.064;16.612;2023-05-29T08:58:24;5.30;;;2.53;;
26598;SDS011;14240;51.064;16.612;2023-05-29T09:00:52;7.63;;;2.83;;
26598;SDS011;14240;51.064;16.612;2023-05-29T09:03:24;4.45;;;2.58;;
26598;SDS011;14240;51.064;16.612;2023-05-29T09:05:49;5.53;;;2.78;;
26598;SDS011;14240;51.064;16.612;2023-05-29T09:08:15;4.45;;;2.50;;
26598;SDS011;14240;51.064;16.612;2023-05-29T09:10:42;6.10;;;2.80;;
26598;SDS011;14240;51.064;16.612;2023-05-29T09:13:08;4.05;;;2.63;;
26598;SDS011;14240;51.064;16.612;2023-05-29T09:15:35;6.85;;;2.88;;
26598;SDS011;14240;51.064;16.612;2023-05-29T09:18:03;4.82;;;2.53;;
26598;SDS011;14240;51.064;16.612;2023-05-29T09:20:29;5.28;;;2.42;;
26598;SDS011;14240;51.064;16.612;2023-05-29T09:22:59;5.82;;;2.75;;
26598;SDS011;14240;51.064;16.612;2023-05-29T09:25:28;14.30;;;3.33;;
26598;SDS011;14240;51.064;16.612;2023-05-29T09:27:59;8.05;;;3.15;;
26598;SDS011;14240;51.064;16.612;2023-05-29T09:30:31;8.77;;;2.72;;
26598;SDS011;14240;51.064;16.612;2023-05-29T09:32:58;6.18;;;2.58;;
26598;SDS011;14240;51.064;16.612;2023-05-29T09:35:32;5.72;;;3.05;;
26598;SDS011;14240;51.064;16.612;2023-05-29T09:37:58;9.32;;;2.72;;
26598;SDS011;14240;51.064;16.612;2023-05-29T09:40:24;7.90;;;3.40;;
26598;SDS011;14240;51.064;16.612;2023-05-29T09:42:49;6.53;;;2.75;;
26598;SDS011;14240;51.064;16.612;2023-05-29T09:45:18;6.22;;;2.75;;
26598;SDS011;14240;51.064;16.612;2023-05-29T09:47:46;4.85;;;3.08;;
26598;SDS011;14240;51.064;16.612;2023-05-29T09:50:20;4.87;;;2.33;;
26598;SDS011;14240;51.064;16.612;2023-05-29T09:52:50;8.80;;;2.67;;
26598;SDS011;14240;51.064;16.612;2023-05-29T09:55:18;7.00;;;2.65;;
26598;SDS011;14240;51.064;16.612;2023-05-29T09:57:48;13.18;;;2.40;;
26598;SDS011;14240;51.064;16.612;2023-05-29T10:00:15;6.70;;;2.75;;
26598;SDS011;14240;51.064;16.612;2023-05-29T10:02:42;9.23;;;3.05;;
26598;SDS011;14240;51.064;16.612;2023-05-29T10:05:08;3.65;;;2.40;;
26598;SDS011;14240;51.064;16.612;2023-05-29T10:10:03;5.82;;;2.50;;
26598;SDS011;14240;51.064;16.612;2023-05-29T10:12:37;11.32;;;2.80;;
26598;SDS011;14240;51.064;16.612;2023-05-29T10:15:14;6.47;;;2.42;;
26598;SDS011;14240;51.064;16.612;2023-05-29T10:20:12;9.73;;;2.97;;
26598;SDS011;14240;51.064;16.612;2023-05-29T10:22:41;5.90;;;2.50;;
26598;SDS011;14240;51.064;16.612;2023-05-29T10:25:11;6.85;;;2.90;;
26598;SDS011;14240;51.064;16.612;2023-05-29T10:27:39;2.95;;;2.15;;
26598;SDS011;14240;51.064;16.612;2023-05-29T10:30:52;7.22;;;2.60;;
26598;SDS011;14240;51.064;16.612;2023-05-29T10:36:02;3.60;;;2.40;;
26598;SDS011;14240;51.064;16.612;2023-05-29T10:38:30;4.28;;;2.42;;
26598;SDS011;14240;51.064;16.612;2023-05-29T10:40:56;6.28;;;2.35;;
26598;SDS011;14240;51.064;16.612;2023-05-29T10:43:54;11.57;;;2.60;;
26598;SDS011;14240;51.064;16.612;2023-05-29T10:46:20;3.90;;;2.13;;
26598;SDS011;14240;51.064;16.612;2023-05-29T10:48:50;5.10;;;2.10;;
26598;SDS011;14240;51.064;16.612;2023-05-29T10:51:28;6.18;;;2.40;;
26598;SDS011;14240;51.064;16.612;2023-05-29T10:53:56;8.23;;;2.20;;
26598;SDS011;14240;51.064;16.612;2023-05-29T10:56:22;5.63;;;2.30;;
26598;SDS011;14240;51.064;16.612;2023-05-29T11:01:18;6.45;;;2.47;;
26598;SDS011;14240;51.064;16.612;2023-05-29T11:03:46;6.95;;;2.50;;
26598;SDS011;14240;51.064;16.612;2023-05-29T11:06:19;4.80;;;2.45;;
26598;SDS011;14240;51.064;16.612;2023-05-29T11:08:55;6.18;;;2.70;;
26598;SDS011;14240;51.064;16.612;2023-05-29T11:13:57;8.95;;;2.83;;
26598;SDS011;14240;51.064;16.612;2023-05-29T11:18:55;3.95;;;2.22;;
26598;SDS011;14240;51.064;16.612;2023-05-29T11:23:51;8.05;;;3.10;;
26598;SDS011;14240;51.064;16.612;2023-05-29T11:26:21;6.55;;;2.72;;
26598;SDS011;14240;51.064;16.612;2023-05-29T11:28:49;2.72;;;2.17;;
26598;SDS011;14240;51.064;16.612;2023-05-29T11:31:14;3.95;;;2.28;;
26598;SDS011;14240;51.064;16.612;2023-05-29T11:33:42;4.20;;;1.93;;
26598;SDS011;14240;51.064;16.612;2023-05-29T11:36:13;6.32;;;2.30;;
26598;SDS011;14240;51.064;16.612;2023-05-29T11:38:39;3.75;;;2.53;;
26598;SDS011;14240;51.064;16.612;2023-05-29T11:41:06;3.97;;;2.28;;
26598;SDS011;14240;51.064;16.612;2023-05-29T11:43:31;3.60;;;2.40;;
26598;SDS011;14240;51.064;16.612;2023-05-29T11:45:58;7.72;;;2.53;;
26598;SDS011;14240;51.064;16.612;2023-05-29T11:48:23;7.65;;;3.35;;
26598;SDS011;14240;51.064;16.612;2023-05-29T11:50:49;3.80;;;2.55;;
26598;SDS011;14240;51.064;16.612;2023-05-29T11:53:15;7.25;;;2.42;;
26598;SDS011;14240;51.064;16.612;2023-05-29T11:55:41;5.72;;;2.65;;
26598;SDS011;14240;51.064;16.612;2023-05-29T11:58:06;6.65;;;2.67;;
26598;SDS011;14240;51.064;16.612;2023-05-29T12:00:36;8.68;;;2.78;;
26598;SDS011;14240;51.064;16.612;2023-05-29T12:03:03;4.53;;;2.47;;
26598;SDS011;14240;51.064;16.612;2023-05-29T12:05:30;6.82;;;2.33;;
26598;SDS011;14240;51.064;16.612;2023-05-29T12:07:57;4.53;;;2.40;;
26598;SDS011;14240;51.064;16.612;2023-05-29T12:10:26;4.82;;;2.42;;
26598;SDS011;14240;51.064;16.612;2023-05-29T12:12:53;5.63;;;2.60;;
26598;SDS011;14240;51.064;16.612;2023-05-29T12:15:20;4.05;;;3.00;;
26598;SDS011;14240;51.064;16.612;2023-05-29T12:17:47;7.70;;;2.33;;
26598;SDS011;14240;51.064;16.612;2023-05-29T12:20:15;4.55;;;2.45;;
26598;SDS011;14240;51.064;16.612;2023-05-29T12:22:42;4.93;;;2.15;;
26598;SDS011;14240;51.064;16.612;2023-05-29T12:27:39;7.07;;;2.67;;
26598;SDS011;14240;51.064;16.612;2023-05-29T12:32:37;3.72;;;2.53;;
26598;SDS011;14240;51.064;16.612;2023-05-29T12:35:16;4.93;;;2.85;;
26598;SDS011;14240;51.064;16.612;2023-05-29T12:37:55;8.20;;;2.33;;
26598;SDS011;14240;51.064;16.612;2023-05-29T12:40:24;4.35;;;2.55;;
26598;SDS011;14240;51.064;16.612;2023-05-29T12:42:58;2.95;;;2.17;;
26598;SDS011;14240;51.064;16.612;2023-05-29T12:45:25;7.45;;;2.60;;
26598;SDS011;14240;51.064;16.612;2023-05-29T12:47:52;5.40;;;2.55;;
26598;SDS011;14240;51.064;16.612;2023-05-29T12:55:22;5.68;;;2.15;;
26598;SDS011;14240;51.064;16.612;2023-05-29T12:57:48;4.50;;;2.25;;
26598;SDS011;14240;51.064;16.612;2023-05-29T13:00:14;8.60;;;2.50;;
26598;SDS011;14240;51.064;16.612;2023-05-29T13:02:40;3.20;;;2.53;;
26598;SDS011;14240;51.064;16.612;2023-05-29T13:05:06;4.88;;;2.90;;
26598;SDS011;14240;51.064;16.612;2023-05-29T13:07:32;6.75;;;2.88;;
26598;SDS011;14240;51.064;16.612;2023-05-29T13:09:59;5.70;;;3.30;;
26598;SDS011;14240;51.064;16.612;2023-05-29T13:12:25;5.33;;;2.80;;
26598;SDS011;14240;51.064;16.612;2023-05-29T13:14:50;9.55;;;2.60;;
26598;SDS011;14240;51.064;16.612;2023-05-29T13:17:16;4.95;;;2.80;;
26598;SDS011;14240;51.064;16.612;2023-05-29T13:19:42;5.25;;;2.65;;
26598;SDS011;14240;51.064;16.612;2023-05-29T13:22:08;5.90;;;2.70;;
26598;SDS011;14240;51.064;16.612;2023-05-29T13:24:34;5.18;;;2.85;;
26598;SDS011;14240;51.064;16.612;2023-05-29T13:26:59;3.90;;;2.92;;
26598;SDS011;14240;51.064;16.612;2023-05-29T13:29:26;4.13;;;2.90;;
26598;SDS011;14240;51.064;16.612;2023-05-29T13:31:51;4.25;;;2.65;;
26598;SDS011;14240;51.064;16.612;2023-05-29T13:34:17;6.82;;;2.95;;
26598;SDS011;14240;51.064;16.612;2023-05-29T13:36:43;3.50;;;2.53;;
26598;SDS011;14240;51.064;16.612;2023-05-29T13:39:10;5.53;;;3.03;;
26598;SDS011;14240;51.064;16.612;2023-05-29T13:41:35;7.10;;;3.00;;
26598;SDS011;14240;51.064;16.612;2023-05-29T13:44:01;5.15;;;3.00;;
26598;SDS011;14240;51.064;16.612;2023-05-29T13:46:27;3.63;;;2.53;;
26598;SDS011;14240;51.064;16.612;2023-05-29T13:48:53;4.47;;;2.70;;
26598;SDS011;14240;51.064;16.612;2023-05-29T13:51:18;5.00;;;2.80;;
26598;SDS011;14240;51.064;16.612;2023-05-29T13:53:44;6.25;;;3.35;;
26598;SDS011;14240;51.064;16.612;2023-05-29T13:56:10;4.97;;;2.95;;
26598;SDS011;14240;51.064;16.612;2023-05-29T13:58:35;7.03;;;2.58;;
26598;SDS011;14240;51.064;16.612;2023-05-29T14:01:01;5.82;;;2.78;;
26598;SDS011;14240;51.064;16.612;2023-05-29T14:03:27;6.55;;;2.78;;
26598;SDS011;14240;51.064;16.612;2023-05-29T14:05:54;5.00;;;2.80;;
26598;SDS011;14240;51.064;16.612;2023-05-29T14:08:20;6.88;;;3.10;;
26598;SDS011;14240;51.064;16.612;2023-05-29T14:10:45;4.05;;;2.95;;
26598;SDS011;14240;51.064;16.612;2023-05-29T14:13:11;8.13;;;3.40;;
26598;SDS011;14240;51.064;16.612;2023-05-29T14:15:37;3.65;;;2.47;;
26598;SDS011;14240;51.064;16.612;2023-05-29T14:18:02;5.20;;;3.33;;
26598;SDS011;14240;51.064;16.612;2023-05-29T14:20:28;4.47;;;2.67;;
26598;SDS011;14240;51.064;16.612;2023-05-29T14:22:54;5.68;;;3.00;;
26598;SDS011;14240;51.064;16.612;2023-05-29T14:25:20;5.60;;;2.85;;
26598;SDS011;14240;51.064;16.612;2023-05-29T14:27:46;5.35;;;3.10;;
26598;SDS011;14240;51.064;16.612;2023-05-29T14:30:11;5.55;;;3.40;;
26598;SDS011;14240;51.064;16.612;2023-05-29T14:32:37;4.75;;;3.15;;
26598;SDS011;14240;51.064;16.612;2023-05-29T14:35:03;9.30;;;3.80;;
26598;SDS011;14240;51.064;16.612;2023-05-29T14:37:28;6.43;;;3.00;;
26598;SDS011;14240;51.064;16.612;2023-05-29T14:39:54;6.75;;;3.30;;
26598;SDS011;14240;51.064;16.612;2023-05-29T14:42:20;4.20;;;3.13;;
26598;SDS011;14240;51.064;16.612;2023-05-29T14:44:46;5.68;;;3.13;;
26598;SDS011;14240;51.064;16.612;2023-05-29T14:47:12;6.32;;;3.20;;
26598;SDS011;14240;51.064;16.612;2023-05-29T14:49:38;7.93;;;3.60;;
26598;SDS011;14240;51.064;16.612;2023-05-29T14:52:04;5.82;;;3.08;;
26598;SDS011;14240;51.064;16.612;2023-05-29T14:54:30;5.15;;;3.58;;
26598;SDS011;14240;51.064;16.612;2023-05-29T14:56:56;7.10;;;3.53;;
26598;SDS011;14240;51.064;16.612;2023-05-29T14:59:22;6.50;;;3.45;;
26598;SDS011;14240;51.064;16.612;2023-05-29T15:01:49;4.47;;;3.23;;
26598;SDS011;14240;51.064;16.612;2023-05-29T15:04:15;6.25;;;2.88;;
26598;SDS011;14240;51.064;16.612;2023-05-29T15:06:41;7.60;;;3.60;;
26598;SDS011;14240;51.064;16.612;2023-05-29T15:09:07;9.10;;;3.47;;
26598;SDS011;14240;51.064;16.612;2023-05-29T15:11:32;6.18;;;2.80;;